Tioga, WV (26691)

9:05 AM EDT on August 26, 2016 (GMT -0400)
Summersville | | Change Station

Elev 1932 ft 38.30 °N, 80.84 °W | Updated 37 seconds ago

Fog
Fog
70.9 °F
Feels Like 70.9 °F
N
0.0
Wind Variable Wind from SW

Today
High -- | Low -- °F
--% Chance of Precip.
Yesterday
High -- | Low -- °F
Precip. -- in
Pressure 30.23 in
Visibility 0.2 miles
Clouds Overcast 100 ft
Dew Point 68 °F
Humidity 90%
Rainfall 0.00 in
Snow Depth Not available.
6:47 AM 8:00 PM
Waning Crescent, 35% visible
METAR KLWB 261255Z AUTO 20003KT 1/4SM FG OVC001 20/20 A3023 RMK AO2 T01980197
Pressure 30.23 in
Visibility 0.2 miles
Clouds Overcast 100 ft
Dew Point 68 °F
Humidity 90%
Rainfall 0.00 in
Snow Depth Not available.
6:47 AM 8:00 PM
Waning Crescent, 35% visible
METAR KLWB 261255Z AUTO 20003KT 1/4SM FG OVC001 20/20 A3023 RMK AO2 T01980197

10-Day Weather Forecast

Almanac

Astronomy

Aug. 26, 2016 Rise Set
Actual Time
Civil Twilight
Nautical Twilight
Astronomical Twilight
Moon
Length of Visible Light
Length of Day
Tomorrow will be .
, % of the Moon is Illuminated

Today's Extremes

State Highs State Lows

Community

WunderPhotos

Upload Photos

1,935,082 photos uploaded!

WunderBlog® & News

Nearby

Air Quality

  Air Quality AQ Index Pollutant
Not available.

Snow Depth

Station Depth Elevation

Earthquake Activity

City Distance Mag. Time & Date
Minimum magnitude displayed is 2.5.

Coastal Water Temperatures

Place Temperature

Stations

Nearby Weather Stations

Station Location Temp. Windchill Dew Point Humidity Wind Precip. Elev Updated Type
                   

Watches & Warnings

There are currently no watches in effect.